Time;durP1;ratioP1;P1;durP2;ratioP2;P2;SDS_P1;SDS_P2;PMS_P1;PMS_P2;Temp;Humidity;BMP_temperature;BMP_pressure;BME280_temperature;BME280_humidity;BME280_pressure;Samples;Min_cycle;Max_cycle;Signal;HPM_P1;HPM_P2
2021/05/30 00:02:24;;;;;;;12.80;8.38;;;;;;;13.79;70.21;102366.63;4952489;29;20077;-47
2021/05/30 00:04:51;;;;;;;11.40;7.10;;;;;;;13.72;70.30;102360.75;4952473;29;20043;-46
2021/05/30 00:07:22;;;;;;;9.93;7.60;;;;;;;13.68;70.47;102353.38;4952164;29;20094;-47
2021/05/30 00:09:52;;;;;;;11.02;7.53;;;;;;;13.63;70.66;102357.16;4952600;29;20047;-47
2021/05/30 00:12:20;;;;;;;13.13;8.65;;;;;;;13.67;70.36;102349.78;4951733;29;20138;-47
2021/05/30 00:14:47;;;;;;;11.60;7.90;;;;;;;13.61;70.69;102356.63;4950710;29;20043;-45
2021/05/30 00:17:17;;;;;;;11.90;7.15;;;;;;;13.57;70.96;102357.63;4950016;29;20133;-47
2021/05/30 00:19:44;;;;;;;11.85;7.60;;;;;;;13.51;71.18;102353.34;4950675;28;20055;-47
2021/05/30 00:22:11;;;;;;;10.30;7.28;;;;;;;13.45;71.35;102352.69;4950435;29;20122;-46
2021/05/30 00:24:38;;;;;;;7.97;6.10;;;;;;;13.43;71.42;102347.47;4951134;29;20144;-46
2021/05/30 00:27:06;;;;;;;12.23;6.78;;;;;;;13.41;71.47;102349.75;4949607;28;20043;-44
2021/05/30 00:29:35;;;;;;;16.38;7.20;;;;;;;13.42;71.53;102351.38;4940882;29;20081;-47
2021/05/30 00:32:03;;;;;;;14.98;6.72;;;;;;;13.47;71.29;102347.63;4948709;29;20094;-45
2021/05/30 00:34:29;;;;;;;9.35;5.78;;;;;;;13.42;71.51;102345.81;4952520;29;20098;-46
2021/05/30 00:36:56;;;;;;;8.98;5.90;;;;;;;13.39;71.46;102340.09;4951395;29;20071;-44
2021/05/30 00:39:23;;;;;;;10.18;5.13;;;;;;;13.35;71.71;102347.44;4949493;29;20440;-45
2021/05/30 00:41:50;;;;;;;9.82;5.47;;;;;;;13.33;71.60;102341.41;4946581;29;20118;-47
2021/05/30 00:44:24;;;;;;;7.13;6.15;;;;;;;13.31;71.69;102352.03;4934529;29;20968;-44
2021/05/30 00:46:59;;;;;;;7.90;5.10;;;;;;;13.33;71.57;102355.31;4952424;29;20035;-47
2021/05/30 00:49:27;;;;;;;10.25;6.00;;;;;;;13.36;71.47;102352.69;4951934;29;20138;-47
2021/05/30 00:51:55;;;;;;;7.25;5.55;;;;;;;13.31;71.70;102352.84;4951809;29;20055;-45
2021/05/30 00:54:23;;;;;;;6.70;4.38;;;;;;;13.33;71.52;102352.53;4948018;29;20126;-45
2021/05/30 00:56:50;;;;;;;9.43;5.82;;;;;;;13.30;71.57;102350.38;4942753;29;20134;-44
2021/05/30 00:59:17;;;;;;;10.43;6.28;;;;;;;13.29;71.29;102345.97;4951963;29;20128;-46
2021/05/30 01:01:44;;;;;;;11.00;6.63;;;;;;;13.25;71.53;102356.09;4952005;29;20078;-46
2021/05/30 01:04:11;;;;;;;10.80;7.43;;;;;;;13.21;71.90;102357.91;4961785;28;20090;-44
2021/05/30 01:06:39;;;;;;;10.68;7.30;;;;;;;13.21;71.88;102349.56;4934743;29;20106;-44
2021/05/30 01:09:06;;;;;;;7.68;6.25;;;;;;;13.18;71.89;102350.22;4951577;29;20501;-45
2021/05/30 01:11:34;;;;;;;9.10;7.90;;;;;;;13.11;72.26;102358.19;4939572;29;20059;-45
2021/05/30 01:14:02;;;;;;;10.43;7.20;;;;;;;13.13;72.12;102344.81;4951934;29;20047;-46
2021/05/30 01:16:29;;;;;;;10.45;7.97;;;;;;;13.17;71.99;102354.13;4951706;29;20053;-46
2021/05/30 01:18:58;;;;;;;9.85;7.45;;;;;;;13.13;71.94;102348.38;4951212;29;20043;-44
2021/05/30 01:21:27;;;;;;;11.27;9.52;;;;;;;13.06;72.40;102349.97;4952074;29;20150;-45
2021/05/30 01:23:57;;;;;;;18.65;9.77;;;;;;;13.02;72.75;102346.22;4950775;29;20556;-45
2021/05/30 01:26:24;;;;;;;13.68;8.88;;;;;;;12.97;72.82;102355.53;4947295;29;20514;-46
2021/05/30 01:28:52;;;;;;;14.32;10.45;;;;;;;12.99;72.80;102352.41;4946140;29;20078;-47
2021/05/30 01:31:23;;;;;;;14.48;10.43;;;;;;;12.99;72.79;102352.41;4943054;28;20654;-49
2021/05/30 01:33:52;;;;;;;16.75;10.63;;;;;;;12.94;72.90;102355.34;4952211;29;20043;-45
2021/05/30 01:36:18;;;;;;;13.02;10.05;;;;;;;12.91;73.51;102347.63;4950765;28;20190;-45
2021/05/30 01:38:48;;;;;;;13.00;9.02;;;;;;;12.86;73.46;102348.63;4951651;29;20070;-47
2021/05/30 01:41:15;;;;;;;11.57;9.30;;;;;;;12.81;73.27;102340.41;4942854;29;20047;-47
2021/05/30 01:43:42;;;;;;;12.98;7.78;;;;;;;12.79;73.41;102342.69;4942280;29;20150;-48
2021/05/30 01:46:09;;;;;;;10.63;8.10;;;;;;;12.78;73.66;102341.88;4951588;28;20508;-44
2021/05/30 01:48:38;;;;;;;15.68;7.30;;;;;;;12.79;73.49;102346.28;4953797;29;20053;-49
2021/05/30 01:51:05;;;;;;;8.20;6.82;;;;;;;12.77;73.57;102356.91;4954900;29;20070;-46
2021/05/30 01:53:39;;;;;;;8.98;6.22;;;;;;;12.77;73.65;102342.19;4946831;29;20078;-46
2021/05/30 01:58:34;;;;;;;9.43;6.60;;;;;;;12.74;73.58;102346.44;4954389;29;20122;-45
2021/05/30 02:01:01;;;;;;;10.40;7.15;;;;;;;12.70;73.72;102344.63;4953789;28;20066;-47
2021/05/30 02:03:29;;;;;;;12.13;5.68;;;;;;;12.71;73.69;102346.25;4946252;29;20054;-46
2021/05/30 02:05:58;;;;;;;8.18;5.55;;;;;;;12.74;73.41;102346.44;4950609;29;20138;-51
2021/05/30 02:08:27;;;;;;;9.18;5.82;;;;;;;12.78;73.31;102339.09;4954345;29;20110;-46
2021/05/30 02:10:54;;;;;;;9.35;5.95;;;;;;;12.74;73.36;102343.66;4953572;29;20039;-46
2021/05/30 02:13:24;;;;;;;6.63;4.80;;;;;;;12.71;73.51;102341.50;4942198;29;20130;-45
2021/05/30 02:15:52;;;;;;;16.27;8.23;;;;;;;12.69;73.63;102338.25;4953665;29;20170;-48
2021/05/30 02:18:19;;;;;;;8.80;6.00;;;;;;;12.68;73.66;102339.38;4954799;29;20650;-46
2021/05/30 02:20:48;;;;;;;8.85;5.28;;;;;;;12.66;73.72;102338.88;4953557;29;20110;-47
2021/05/30 02:23:16;;;;;;;8.55;5.85;;;;;;;12.67;73.72;102346.09;4954750;29;20074;-48
2021/05/30 02:25:43;;;;;;;6.85;5.57;;;;;;;12.62;73.78;102342.63;4952459;29;20133;-45
2021/05/30 02:28:09;;;;;;;11.52;6.43;;;;;;;12.59;73.90;102349.66;4954558;29;20107;-52
2021/05/30 02:30:37;;;;;;;13.55;6.85;;;;;;;12.57;73.90;102346.38;4949387;28;20051;-46
2021/05/30 02:33:04;;;;;;;10.57;6.07;;;;;;;12.57;73.78;102337.22;4953747;29;20051;-47
2021/05/30 02:35:31;;;;;;;12.43;7.25;;;;;;;12.52;74.13;102340.94;4943066;29;20450;-47
2021/05/30 02:37:58;;;;;;;9.05;5.55;;;;;;;12.48;74.22;102347.44;4955020;29;20055;-45
2021/05/30 02:40:25;;;;;;;11.90;6.22;;;;;;;12.41;74.46;102341.53;4953906;29;20134;-48
2021/05/30 02:42:52;;;;;;;9.10;6.25;;;;;;;12.37;74.46;102343.31;4953953;29;20098;-45
2021/05/30 02:45:19;;;;;;;7.30;5.53;;;;;;;12.32;74.68;102349.81;4953782;29;20483;-44
2021/05/30 02:47:45;;;;;;;7.47;6.53;;;;;;;12.27;74.74;102346.34;4951659;29;20081;-45
2021/05/30 02:50:13;;;;;;;10.60;6.63;;;;;;;12.25;74.81;102335.56;4948552;29;20485;-44
2021/05/30 02:52:40;;;;;;;8.18;6.47;;;;;;;12.21;74.89;102346.50;4952464;29;20126;-46
2021/05/30 02:55:08;;;;;;;9.68;6.50;;;;;;;12.21;74.88;102342.88;4952230;29;20043;-48
2021/05/30 02:57:35;;;;;;;10.75;7.32;;;;;;;12.22;74.83;102341.75;4954519;29;20059;-45
2021/05/30 03:00:05;;;;;;;7.35;6.03;;;;;;;12.21;74.73;102331.78;4947915;28;20468;-45
2021/05/30 03:02:32;;;;;;;7.07;6.13;;;;;;;12.18;74.95;102322.13;4953503;29;20138;-48
2021/05/30 03:04:58;;;;;;;11.07;6.43;;;;;;;12.15;75.12;102333.06;4953228;29;20154;-49
2021/05/30 03:07:27;;;;;;;9.30;6.03;;;;;;;12.17;74.91;102336.34;4953594;29;20078;-47
2021/05/30 03:09:54;;;;;;;9.50;6.63;;;;;;;12.17;75.04;102330.78;4940657;29;20070;-45
2021/05/30 03:12:21;;;;;;;9.40;6.28;;;;;;;12.15;74.75;102336.66;4953197;29;20081;-46
2021/05/30 03:14:48;;;;;;;8.25;6.05;;;;;;;12.10;74.81;102331.22;4947092;29;20126;-49
2021/05/30 03:17:15;;;;;;;8.65;6.43;;;;;;;12.09;74.82;102326.81;4953577;29;20059;-46
2021/05/30 03:19:42;;;;;;;9.07;6.93;;;;;;;12.05;74.82;102324.97;4950769;29;20049;-45
2021/05/30 03:22:09;;;;;;;11.60;7.20;;;;;;;12.05;74.96;102316.66;4952651;29;20078;-46
2021/05/30 03:24:37;;;;;;;10.52;6.95;;;;;;;12.05;75.01;102323.03;4952457;29;20047;-49
2021/05/30 03:27:04;;;;;;;9.40;7.28;;;;;;;12.02;75.17;102314.53;4953551;29;20053;-45
2021/05/30 03:29:30;;;;;;;9.35;6.63;;;;;;;12.02;74.90;102311.75;4946809;28;20063;-44
2021/05/30 03:31:58;;;;;;;12.02;7.47;;;;;;;11.95;75.09;102314.16;4951412;29;20062;-45
2021/05/30 03:34:24;;;;;;;9.75;6.20;;;;;;;12.00;74.87;102319.56;4953165;29;20065;-47
2021/05/30 03:36:55;;;;;;;10.05;6.85;;;;;;;11.97;74.73;102309.91;4953144;29;20504;-44
2021/05/30 03:39:24;;;;;;;15.80;7.63;;;;;;;11.99;74.72;102309.63;4953052;29;20074;-45
2021/05/30 03:41:54;;;;;;;11.43;7.45;;;;;;;11.96;74.76;102302.75;4935668;29;20441;-44
2021/05/30 03:44:21;;;;;;;10.20;7.45;;;;;;;11.95;74.77;102314.97;4948542;28;20730;-46
2021/05/30 03:46:48;;;;;;;11.45;8.20;;;;;;;11.99;74.71;102306.84;4956379;28;20051;-45
2021/05/30 03:49:15;;;;;;;9.45;8.15;;;;;;;12.01;74.66;102304.56;4948696;29;20118;-46
2021/05/30 03:51:42;;;;;;;14.30;8.55;;;;;;;11.99;74.54;102306.84;4944260;29;20118;-46
2021/05/30 03:54:09;;;;;;;10.85;7.90;;;;;;;11.99;74.87;102302.09;4952078;29;20071;-45
2021/05/30 03:56:36;;;;;;;12.13;8.40;;;;;;;11.99;74.61;102306.84;4953084;28;20051;-46
2021/05/30 03:59:03;;;;;;;12.52;8.43;;;;;;;12.04;74.62;102306.72;4951185;28;20031;-45
2021/05/30 04:01:30;;;;;;;9.63;7.70;;;;;;;12.04;74.60;102301.16;4941158;29;20475;-45
2021/05/30 04:03:57;;;;;;;12.70;9.48;;;;;;;11.98;74.96;102299.63;4947610;29;20118;-45
2021/05/30 04:06:24;;;;;;;12.13;7.72;;;;;;;11.97;75.05;102303.53;4950737;29;20146;-45
2021/05/30 04:08:50;;;;;;;13.55;8.68;;;;;;;11.95;75.11;102303.03;4952812;29;20046;-44
2021/05/30 04:11:18;;;;;;;13.55;9.35;;;;;;;11.93;75.38;102297.81;4951721;28;20051;-44
2021/05/30 04:13:46;;;;;;;12.45;9.95;;;;;;;11.90;75.44;102298.44;4936841;29;20043;-45
2021/05/30 04:16:12;;;;;;;10.43;8.32;;;;;;;11.87;75.51;102299.06;4951931;29;20055;-46
2021/05/30 04:18:42;;;;;;;15.82;9.88;;;;;;;11.89;75.60;102294.03;4951715;29;20051;-45
2021/05/30 04:21:09;;;;;;;14.50;9.13;;;;;;;11.87;75.63;102292.69;4950088;29;20126;-46
2021/05/30 04:23:36;;;;;;;14.98;10.40;;;;;;;11.89;75.65;102295.97;4952144;29;20090;-45
2021/05/30 04:26:03;;;;;;;14.23;11.02;;;;;;;11.86;75.81;102291.88;4927522;29;20040;-46
2021/05/30 04:28:30;;;;;;;15.43;10.52;;;;;;;11.85;76.08;102300.53;4948356;29;20051;-49
2021/05/30 04:30:57;;;;;;;17.63;12.07;;;;;;;11.86;76.06;102293.84;4951419;28;20479;-46
2021/05/30 04:33:24;;;;;;;15.90;10.13;;;;;;;11.85;76.08;102294.97;4950835;29;20047;-46
2021/05/30 04:35:51;;;;;;;15.60;11.15;;;;;;;11.86;76.00;102291.88;4952079;29;20114;-45
2021/05/30 04:38:18;;;;;;;17.92;11.00;;;;;;;11.86;76.04;102291.88;4952365;29;20790;-47
2021/05/30 04:40:48;;;;;;;21.88;10.88;;;;;;;11.84;76.08;102291.38;4935673;29;20035;-49
2021/05/30 04:43:15;;;;;;;17.60;10.50;;;;;;;11.85;76.12;102292.22;4950321;29;20114;-49
2021/05/30 04:45:42;;;;;;;18.60;11.68;;;;;;;11.83;76.36;102297.25;4952258;29;20071;-46
2021/05/30 04:48:09;;;;;;;16.63;11.88;;;;;;;11.82;76.08;102298.38;4951941;29;20165;-45
2021/05/30 04:50:36;;;;;;;14.75;9.88;;;;;;;11.85;76.19;102294.97;4952219;29;20134;-45
2021/05/30 04:53:03;;;;;;;18.10;12.60;;;;;;;11.90;75.94;102292.06;4951996;29;20051;-43
2021/05/30 04:55:30;;;;;;;15.18;11.30;;;;;;;11.84;76.56;102283.06;4951156;29;20047;-46
2021/05/30 04:57:56;;;;;;;14.15;10.75;;;;;;;11.85;76.47;102289.44;4938547;29;20047;-46
2021/05/30 05:00:23;;;;;;;18.65;11.80;;;;;;;11.86;76.57;102285.53;4951188;28;20047;-45
2021/05/30 05:02:50;;;;;;;17.98;10.90;;;;;;;11.89;76.57;102291.25;4951957;29;20051;-45
2021/05/30 05:05:17;;;;;;;19.05;11.32;;;;;;;11.92;76.49;102284.25;4951221;29;20075;-45
2021/05/30 05:07:44;;;;;;;16.77;11.55;;;;;;;11.97;76.54;102286.88;4952269;29;20086;-46
2021/05/30 05:10:12;;;;;;;15.98;12.35;;;;;;;11.97;76.40;102286.88;4951821;29;20051;-44
2021/05/30 05:12:39;;;;;;;17.15;10.98;;;;;;;11.98;76.71;102271.88;4952490;29;20061;-44
2021/05/30 05:15:07;;;;;;;14.93;10.95;;;;;;;12.04;76.58;102282.53;4936955;29;20415;-47
2021/05/30 05:17:34;;;;;;;20.45;12.57;;;;;;;12.04;76.44;102284.50;4946470;29;20058;-45
2021/05/30 05:20:01;;;;;;;18.45;11.85;;;;;;;12.05;76.76;102277.78;4951747;29;20106;-46
2021/05/30 05:22:27;;;;;;;21.65;12.95;;;;;;;12.08;76.82;102277.16;4953430;28;20177;-45
2021/05/30 05:25:03;;;;;;;21.67;13.68;;;;;;;12.12;76.82;102275.41;4955335;29;20378;-48
2021/05/30 05:27:31;;;;;;;19.48;12.60;;;;;;;12.17;76.77;102275.25;4955721;29;20047;-44
2021/05/30 05:29:57;;;;;;;26.30;13.65;;;;;;;12.20;76.74;102280.19;4941708;28;20039;-46
2021/05/30 05:32:24;;;;;;;20.27;14.75;;;;;;;12.21;76.97;102270.69;4962397;28;20156;-48
2021/05/30 05:34:51;;;;;;;20.63;14.07;;;;;;;12.26;77.15;102265.00;4954008;28;20098;-46
2021/05/30 05:37:18;;;;;;;22.52;13.80;;;;;;;12.32;77.21;102269.28;4954702;28;20504;-45
2021/05/30 05:39:45;;;;;;;19.65;13.02;;;;;;;12.37;77.18;102269.13;4955237;29;20062;-50
2021/05/30 05:42:11;;;;;;;19.42;12.82;;;;;;;12.42;77.31;102266.22;4955780;29;20130;-45
2021/05/30 05:44:38;;;;;;;20.17;14.02;;;;;;;12.49;77.39;102265.75;4954909;29;20118;-45
2021/05/30 05:47:06;;;;;;;19.42;12.63;;;;;;;12.53;77.35;102267.56;4955076;29;20078;-45
2021/05/30 05:49:34;;;;;;;18.50;11.88;;;;;;;12.58;77.67;102263.81;4955268;28;20121;-46
2021/05/30 05:52:02;;;;;;;15.45;11.00;;;;;;;12.62;77.73;102265.66;4965190;28;20066;-45
2021/05/30 05:54:46;;;;;;;18.85;11.45;;;;;;;12.67;77.94;102261.91;4950200;29;20051;-45
2021/05/30 05:57:13;;;;;;;22.17;11.93;;;;;;;12.73;78.04;102264.19;4955305;29;20534;-52
2021/05/30 05:59:43;;;;;;;16.30;11.82;;;;;;;12.77;77.73;102262.41;4953699;28;20102;-51
2021/05/30 06:02:10;;;;;;;15.18;10.27;;;;;;;12.83;78.00;102252.78;4955055;29;20047;-48
2021/05/30 06:04:37;;;;;;;12.30;9.82;;;;;;;12.89;78.00;102252.63;4954552;29;20083;-48
2021/05/30 06:07:05;;;;;;;19.85;12.57;;;;;;;12.94;78.25;102252.47;4955110;29;20118;-51
2021/05/30 06:09:32;;;;;;;15.18;9.70;;;;;;;12.99;78.22;102247.59;4954046;29;20134;-49
2021/05/30 06:11:59;;;;;;;16.65;10.25;;;;;;;13.05;78.26;102251.81;4954136;29;20162;-45
2021/05/30 06:14:27;;;;;;;11.20;9.15;;;;;;;13.10;78.47;102259.25;4954239;29;20047;-46
2021/05/30 06:16:54;;;;;;;15.85;8.98;;;;;;;13.15;78.52;102245.19;4954133;29;20053;-48
2021/05/30 06:19:21;;;;;;;15.98;9.57;;;;;;;13.21;78.36;102253.03;4954654;29;20067;-49
2021/05/30 06:21:48;;;;;;;12.95;8.48;;;;;;;13.28;78.42;102250.59;4953547;29;20051;-48
2021/05/30 06:24:24;;;;;;;13.90;9.95;;;;;;;13.35;78.45;102252.88;4945160;29;20548;-50
2021/05/30 06:26:55;;;;;;;13.57;9.23;;;;;;;13.41;78.63;102248.78;4949002;29;20456;-46
2021/05/30 06:29:21;;;;;;;12.50;8.82;;;;;;;13.46;78.31;102250.56;4949788;28;20055;-47
2021/05/30 06:31:49;;;;;;;13.30;9.13;;;;;;;13.52;78.48;102249.25;4954392;29;20082;-48
2021/05/30 06:34:16;;;;;;;10.15;8.13;;;;;;;13.56;78.62;102244.66;4947344;28;20047;-45
2021/05/30 06:36:47;;;;;;;10.57;7.85;;;;;;;13.62;78.39;102243.34;4954571;29;20493;-46
2021/05/30 06:39:14;;;;;;;17.40;8.02;;;;;;;13.68;78.31;102244.81;4943682;29;20130;-48
2021/05/30 06:41:41;;;;;;;9.70;7.20;;;;;;;13.74;78.17;102246.31;4954416;29;20055;-48
2021/05/30 06:44:08;;;;;;;15.15;8.50;;;;;;;13.78;78.27;102239.75;4956517;28;20537;-48
2021/05/30 06:46:36;;;;;;;10.43;7.78;;;;;;;13.90;78.27;102241.81;4953991;29;20055;-45
2021/05/30 06:49:04;;;;;;;13.25;9.15;;;;;;;13.98;78.25;102240.97;4953798;29;20047;-47
2021/05/30 06:51:32;;;;;;;9.55;6.90;;;;;;;14.04;78.19;102237.69;4953863;29;20091;-45
2021/05/30 06:54:01;;;;;;;13.13;7.93;;;;;;;14.14;78.65;102238.50;4952759;29;20460;-48
2021/05/30 06:56:28;;;;;;;9.68;7.05;;;;;;;14.22;78.34;102245.97;4944423;29;20039;-50
2021/05/30 06:58:55;;;;;;;12.68;8.50;;;;;;;14.29;78.40;102243.50;4953073;28;20126;-46
2021/05/30 07:01:23;;;;;;;10.23;8.10;;;;;;;14.39;78.65;102243.16;4953952;29;20094;-45
2021/05/30 07:03:51;;;;;;;13.88;6.35;;;;;;;14.48;78.69;102243.97;4952690;29;20051;-48
2021/05/30 07:06:19;;;;;;;10.80;7.05;;;;;;;14.57;78.57;102248.31;4948621;29;20083;-47
2021/05/30 07:08:46;;;;;;;9.18;7.15;;;;;;;14.69;78.76;102244.84;4945603;28;20468;-47
2021/05/30 07:11:12;;;;;;;12.52;7.20;;;;;;;14.79;79.00;102250.00;4953195;29;20066;-46
2021/05/30 07:13:39;;;;;;;8.98;7.10;;;;;;;14.92;79.45;102248.94;4952582;29;20055;-46
2021/05/30 07:16:06;;;;;;;6.63;5.88;;;;;;;15.04;79.39;102251.81;4950925;28;20137;-46
2021/05/30 07:18:33;;;;;;;6.70;5.38;;;;;;;15.20;79.55;102249.22;4951788;29;20086;-44
2021/05/30 07:21:01;;;;;;;11.90;5.35;;;;;;;15.33;79.92;102252.91;4952921;29;20046;-45
2021/05/30 07:23:30;;;;;;;5.75;5.18;;;;;;;15.44;80.12;102252.16;4935332;29;20042;-45
2021/05/30 07:25:57;;;;;;;6.15;4.45;;;;;;;15.62;80.28;102250.06;4952755;29;20047;-46
2021/05/30 07:28:24;;;;;;;5.45;4.13;;;;;;;15.74;80.73;102236.13;4945722;29;20133;-44
2021/05/30 07:30:50;;;;;;;5.72;3.80;;;;;;;15.95;81.04;102252.84;4952249;28;20041;-48
2021/05/30 07:33:17;;;;;;;6.80;3.67;;;;;;;16.10;81.16;102241.81;4951871;29;20448;-45
2021/05/30 07:35:44;;;;;;;5.75;4.03;;;;;;;16.29;81.35;102244.88;4950593;28;20051;-44
2021/05/30 07:46:18;;;;;;;6.65;3.65;;;;;;;17.51;81.30;102237.97;4962150;28;20082;-45
2021/05/30 07:48:45;;;;;;;4.90;3.45;;;;;;;17.94;79.42;102244.81;4972614;28;20456;-48
2021/05/30 07:51:11;;;;;;;7.55;3.80;;;;;;;18.41;77.21;102251.25;4972323;28;20510;-46
2021/05/30 07:53:38;;;;;;;5.07;3.00;;;;;;;18.95;74.95;102251.41;4972338;28;20435;-46
2021/05/30 07:56:06;;;;;;;5.22;4.13;;;;;;;19.51;71.73;102251.88;4965084;28;20057;-46
2021/05/30 07:58:35;;;;;;;3.60;2.65;;;;;;;20.08;69.73;102250.19;4972842;28;20407;-49
2021/05/30 08:01:03;;;;;;;3.58;2.83;;;;;;;20.64;67.93;102248.38;4971966;28;20097;-45
2021/05/30 08:03:29;;;;;;;3.58;2.53;;;;;;;21.14;65.34;102250.78;4971046;28;20050;-47
2021/05/30 08:05:56;;;;;;;3.10;2.40;;;;;;;21.60;63.47;102245.78;4971097;28;20082;-50
2021/05/30 08:08:24;;;;;;;3.60;2.70;;;;;;;21.92;61.89;102254.63;4970747;28;20515;-45
2021/05/30 08:10:51;;;;;;;3.75;2.97;;;;;;;22.24;60.23;102250.09;4969592;28;20057;-49
2021/05/30 08:13:17;;;;;;;5.25;2.92;;;;;;;22.55;58.93;102248.78;4968806;28;20050;-45
2021/05/30 08:15:45;;;;;;;4.47;2.53;;;;;;;22.77;57.54;102238.50;4971432;28;20057;-48
2021/05/30 08:18:12;;;;;;;3.63;2.78;;;;;;;23.00;56.77;102244.69;4967433;28;20059;-45
2021/05/30 08:20:39;;;;;;;4.97;3.17;;;;;;;23.19;55.84;102243.59;4971629;28;20486;-48
2021/05/30 08:23:09;;;;;;;5.43;3.63;;;;;;;23.43;55.02;102249.38;4970176;28;20047;-45
2021/05/30 08:25:35;;;;;;;11.95;9.43;;;;;;;23.61;54.48;102247.47;4967689;28;20130;-49
2021/05/30 08:28:08;;;;;;;14.60;9.88;;;;;;;23.85;53.95;102250.75;4969502;28;20166;-49
2021/05/30 08:30:37;;;;;;;6.00;5.40;;;;;;;23.90;53.45;102239.06;4969987;28;20077;-51
2021/05/30 08:33:04;;;;;;;5.22;4.78;;;;;;;23.79;52.75;102235.38;4970238;28;20058;-53
2021/05/30 08:35:35;;;;;;;9.13;5.43;;;;;;;23.77;52.43;102234.97;4970782;28;20097;-52
2021/05/30 08:38:22;;;;;;;8.82;6.32;;;;;;;23.76;52.10;102239.00;4969313;28;20050;-51
2021/05/30 08:40:57;;;;;;;5.13;4.63;;;;;;;23.62;51.85;102232.09;4932202;28;20042;-53
2021/05/30 08:43:26;;;;;;;5.13;4.15;;;;;;;23.63;51.64;102239.38;4970765;28;20059;-53
2021/05/30 08:45:56;;;;;;;4.95;4.35;;;;;;;23.67;51.80;102242.19;4963284;28;20522;-53
2021/05/30 08:48:23;;;;;;;6.65;5.75;;;;;;;23.46;51.68;102231.63;4970313;28;20110;-47
2021/05/30 08:51:03;;;;;;;5.72;5.22;;;;;;;23.11;51.48;102234.28;4965417;28;20042;-50
2021/05/30 08:53:36;;;;;;;4.95;3.97;;;;;;;22.76;51.34;102234.03;4966210;28;20055;-49
2021/05/30 08:56:06;;;;;;;7.45;3.80;;;;;;;22.64;52.03;102226.69;4969908;28;20051;-51
2021/05/30 08:58:35;;;;;;;5.60;3.53;;;;;;;22.40;52.24;102221.63;4971750;28;20942;-49
2021/05/30 09:01:13;;;;;;;7.30;4.30;;;;;;;22.18;52.39;102226.28;4955186;28;20408;-52
2021/05/30 09:04:10;;;;;;;5.93;5.40;;;;;;;21.84;53.26;102224.69;4967021;28;20125;-48
2021/05/30 09:06:45;;;;;;;6.68;4.40;;;;;;;21.74;53.58;102225.38;4966695;28;20527;-47
2021/05/30 09:09:15;;;;;;;5.93;4.75;;;;;;;21.72;53.45;102224.94;4963801;28;20133;-52
2021/05/30 09:11:50;;;;;;;4.55;3.72;;;;;;;21.66;54.04;102220.84;4972028;28;20121;-50
2021/05/30 09:14:28;;;;;;;4.80;3.60;;;;;;;21.78;53.98;102229.06;4935835;29;20139;-49
2021/05/30 09:17:02;;;;;;;6.05;3.38;;;;;;;22.08;53.67;102226.19;4953822;28;20071;-53
2021/05/30 09:19:31;;;;;;;5.30;3.70;;;;;;;22.40;53.82;102224.44;4953196;29;20130;-45
2021/05/30 09:22:20;;;;;;;6.05;3.88;;;;;;;22.40;52.75;102230.91;4951395;29;20150;-52
2021/05/30 09:24:50;;;;;;;4.75;3.47;;;;;;;22.18;52.89;102219.81;4953217;29;20089;-50
2021/05/30 09:27:32;;;;;;;4.55;3.70;;;;;;;22.14;53.37;102216.97;4951884;29;20047;-50
2021/05/30 09:34:02;;;;;;;3.75;3.00;;;;;;;22.30;53.34;102211.88;4600520;29;20525;-56
2021/05/30 09:36:52;;;;;;;4.45;2.15;;;;;;;22.56;52.30;102218.53;4882229;29;20044;-52
2021/05/30 09:39:39;;;;;;;3.65;2.40;;;;;;;22.62;50.82;102214.94;4861995;29;20118;-50
2021/05/30 09:42:36;;;;;;;1.85;1.70;;;;;;;22.89;50.69;102216.38;4880720;29;20471;-52
2021/05/30 09:45:05;;;;;;;2.88;1.95;;;;;;;23.23;50.74;102219.78;4870703;29;20082;-49
2021/05/30 09:47:36;;;;;;;4.75;1.98;;;;;;;23.72;49.79;102212.75;4878795;29;20477;-47
2021/05/30 09:50:08;;;;;;;4.10;2.40;;;;;;;23.99;49.07;102216.81;4882920;29;20052;-50
2021/05/30 09:52:43;;;;;;;6.93;2.95;;;;;;;24.21;47.52;102218.50;4878416;29;20051;-49
2021/05/30 09:55:19;;;;;;;5.75;1.77;;;;;;;24.35;47.40;102217.72;4869504;29;20057;-50
2021/05/30 09:58:05;;;;;;;3.67;1.88;;;;;;;24.36;47.22;102208.81;4876866;29;20132;-50
2021/05/30 10:00:33;;;;;;;4.63;2.20;;;;;;;24.48;47.20;102211.25;4879405;29;20049;-48
2021/05/30 10:03:01;;;;;;;3.42;1.83;;;;;;;24.61;47.06;102215.28;4873308;29;20487;-50
2021/05/30 10:05:27;;;;;;;3.28;2.22;;;;;;;24.69;47.09;102210.41;4875487;29;20076;-49
2021/05/30 10:08:04;;;;;;;6.25;2.90;;;;;;;24.79;46.57;102201.94;4882108;29;20044;-49
2021/05/30 10:10:32;;;;;;;3.42;2.20;;;;;;;24.97;46.32;102201.06;4874809;29;20231;-49
2021/05/30 10:17:43;;;;;;;9.93;4.03;;;;;;;24.60;45.84;102205.16;4253789;23;22178;-57
2021/05/30 10:20:14;;;;;;;6.80;3.53;;;;;;;24.45;46.86;102200.72;4945059;29;20077;-47
2021/05/30 10:22:47;;;;;;;4.50;3.92;;;;;;;24.06;46.78;102199.88;4952638;28;20552;-51
2021/05/30 10:25:24;;;;;;;6.05;4.38;;;;;;;23.78;46.88;102188.50;4952494;29;20134;-52
2021/05/30 10:28:27;;;;;;;8.20;5.63;;;;;;;23.70;47.45;102192.53;4949066;29;20134;-50
2021/05/30 10:31:33;;;;;;;7.50;4.22;;;;;;;23.59;46.95;102201.78;4942449;29;20047;-51
2021/05/30 10:34:09;;;;;;;7.25;4.15;;;;;;;23.44;48.04;102194.47;4950368;29;20657;-50
2021/05/30 10:36:55;;;;;;;9.18;5.60;;;;;;;23.34;48.40;102197.22;4951384;29;20098;-49
2021/05/30 10:39:31;;;;;;;9.35;5.88;;;;;;;23.26;48.59;102195.59;4949475;29;20112;-52
2021/05/30 10:42:06;;;;;;;10.70;6.75;;;;;;;23.03;48.46;102193.06;4952854;28;20097;-49
2021/05/30 10:44:53;;;;;;;6.10;5.47;;;;;;;23.01;49.27;102186.97;4966400;28;20110;-52
2021/05/30 10:47:20;;;;;;;6.97;5.80;;;;;;;23.04;49.13;102194.66;4946849;28;20134;-53
2021/05/30 10:50:12;;;;;;;12.50;7.13;;;;;;;23.05;49.70;102182.16;4952491;28;20075;-47
2021/05/30 10:52:50;;;;;;;7.50;5.07;;;;;;;22.92;49.65;102175.25;4952697;29;20043;-51
2021/05/30 10:55:31;;;;;;;8.07;6.32;;;;;;;22.86;50.22;102176.81;4952619;28;20144;-48
2021/05/30 10:58:12;;;;;;;6.90;5.60;;;;;;;22.84;50.49;102173.56;4951437;29;20051;-54
2021/05/30 11:00:39;;;;;;;6.75;5.75;;;;;;;22.84;50.78;102173.56;4953031;28;20089;-50
2021/05/30 11:03:08;;;;;;;6.72;5.15;;;;;;;22.76;50.93;102166.25;4945124;29;20082;-54
2021/05/30 11:05:44;;;;;;;8.48;6.18;;;;;;;22.76;50.88;102166.25;4951993;29;20138;-49
2021/05/30 11:08:29;;;;;;;8.63;6.30;;;;;;;22.68;50.17;102165.41;4949650;29;20111;-50
2021/05/30 11:11:11;;;;;;;8.25;5.43;;;;;;;22.56;51.51;102173.38;4952441;28;20057;-51
2021/05/30 11:13:51;;;;;;;;;;;;;;;22.45;51.97;102162.78;4947254;29;20111;-50
2021/05/30 11:16:29;;;;;;;7.63;6.28;;;;;;;22.31;51.75;102157.06;4948254;29;20364;-50
2021/05/30 11:19:01;;;;;;;8.43;5.35;;;;;;;22.23;51.75;102160.22;4958592;28;20055;-53
2021/05/30 11:21:31;;;;;;;7.00;5.13;;;;;;;22.10;52.74;102156.06;4969907;28;20498;-51
2021/05/30 11:24:05;;;;;;;7.78;6.97;;;;;;;22.00;52.66;102157.59;4970442;28;20486;-51
2021/05/30 11:26:35;;;;;;;8.95;6.30;;;;;;;21.98;52.87;102157.16;4970811;28;20464;-53
2021/05/30 11:29:04;;;;;;;11.20;6.78;;;;;;;21.94;52.89;102145.06;4969706;28;20117;-49
2021/05/30 11:31:32;;;;;;;9.10;7.50;;;;;;;21.94;52.48;102159.16;4970723;28;20492;-52
2021/05/30 11:34:06;;;;;;;8.25;5.57;;;;;;;21.92;53.06;102150.28;4968994;28;20047;-51
2021/05/30 11:36:35;;;;;;;12.77;7.50;;;;;;;21.92;53.25;102147.47;4970277;28;20070;-53
2021/05/30 11:39:14;;;;;;;11.85;5.95;;;;;;;21.97;53.04;102144.28;4969436;28;20113;-52
2021/05/30 11:41:52;;;;;;;8.90;6.75;;;;;;;21.96;53.01;102139.84;4969644;28;20452;-54
2021/05/30 11:44:27;;;;;;;10.55;6.10;;;;;;;21.93;53.77;102143.44;4960929;28;20097;-52
2021/05/30 11:47:00;;;;;;;10.63;6.47;;;;;;;21.98;53.76;102137.44;4964743;28;20102;-57
2021/05/30 11:49:40;;;;;;;11.93;6.38;;;;;;;22.01;52.90;102144.28;4968995;28;20053;-54
2021/05/30 11:52:19;;;;;;;9.75;6.35;;;;;;;22.00;52.78;102135.03;4962902;28;20047;-57